createdAt,value
2019-02-23T00:03:05.836Z,103989.44
2019-02-23T00:05:34.349Z,103992.12
2019-02-23T00:08:02.963Z,103996.58
2019-02-23T00:10:31.478Z,103984.53
2019-02-23T00:13:03.305Z,103986.35
2019-02-23T00:15:32.193Z,103966.29
2019-02-23T00:18:00.759Z,103956.05
2019-02-23T00:20:29.223Z,103946.70
2019-02-23T00:22:57.781Z,103951.14
2019-02-23T00:25:30.761Z,103948.50
2019-02-23T00:27:59.296Z,103934.66
2019-02-23T00:30:27.797Z,103932.48
2019-02-23T00:32:56.367Z,103932.91
2019-02-23T00:35:24.995Z,103931.11
2019-02-23T00:37:53.479Z,103929.31
2019-02-23T00:40:25.671Z,103928.02
2019-02-23T00:42:54.245Z,103923.99
2019-02-23T00:45:23.109Z,103922.68
2019-02-23T00:47:53.275Z,103918.19
2019-02-23T00:50:23.345Z,103918.65
2019-02-23T00:52:51.815Z,103910.22
2019-02-23T00:55:20.363Z,103914.23
2019-02-23T00:57:49.193Z,103906.20
2019-02-23T01:00:19.417Z,103892.84
2019-02-23T01:02:47.893Z,103895.09
2019-02-23T01:05:16.520Z,103896.41
2019-02-23T01:07:45.275Z,103897.30
2019-02-23T01:10:14.043Z,103916.47
2019-02-23T01:12:42.557Z,103920.46
2019-02-23T01:15:11.695Z,103914.23
2019-02-23T01:17:41.085Z,103912.91
2019-02-23T01:20:10.652Z,103908.89
2019-02-23T01:22:39.165Z,103909.34
2019-02-23T01:25:09.315Z,103903.98
2019-02-23T01:27:39.417Z,103900.86
2019-02-23T01:30:11.817Z,103903.08
2019-02-23T01:32:42.630Z,103884.39
2019-02-23T01:35:11.417Z,103879.50
2019-02-23T01:37:39.958Z,103873.72
2019-02-23T01:40:10.200Z,103867.94
2019-02-23T01:42:38.755Z,103866.17
2019-02-23T01:45:08.560Z,103869.73
2019-02-23T01:47:36.998Z,103875.95
2019-02-23T01:50:07.168Z,103878.20
2019-02-23T01:52:35.652Z,103896.89
2019-02-23T01:55:05.127Z,103887.52
2019-02-23T01:57:35.770Z,103880.36
2019-02-23T02:00:07.160Z,103887.04
2019-02-23T02:02:35.717Z,103768.28
2019-02-23T02:05:04.878Z,103887.04
2019-02-23T02:07:33.410Z,103889.28
2019-02-23T02:10:02.106Z,103881.69
2019-02-23T02:12:30.999Z,103899.09
2019-02-23T02:14:59.454Z,103906.66
2019-02-23T02:17:29.583Z,103910.22
2019-02-23T02:20:10.618Z,103916.91
2019-02-23T02:22:34.225Z,103911.09
2019-02-23T02:25:02.791Z,103921.36
2019-02-23T02:27:31.248Z,103918.67
2019-02-23T02:29:59.712Z,103913.30
2019-02-23T02:32:31.313Z,103918.24
2019-02-23T02:34:59.777Z,103922.27
2019-02-23T02:37:28.247Z,103928.05
2019-02-23T02:39:59.062Z,103926.27
2019-02-23T02:42:27.549Z,103923.61
2019-02-23T02:44:57.646Z,103929.81
2019-02-23T02:47:26.152Z,103943.66
2019-02-23T02:49:54.618Z,103939.19
2019-02-23T02:52:23.529Z,103928.52
2019-02-23T02:54:51.982Z,103922.25
2019-02-23T02:57:20.450Z,103923.58
2019-02-23T02:59:48.906Z,103925.81
2019-02-23T03:02:17.377Z,103935.63
2019-02-23T03:04:45.845Z,103929.81
2019-02-23T03:07:14.337Z,103926.69
2019-02-23T03:09:42.937Z,103917.34
2019-02-23T03:12:11.359Z,103916.91
2019-02-23T03:14:39.919Z,103910.25
2019-02-23T03:17:08.390Z,103908.48
2019-02-23T03:19:38.419Z,103911.16
2019-02-23T03:22:06.911Z,103912.95
2019-02-23T03:24:35.383Z,103912.50
2019-02-23T03:27:04.763Z,103911.63
2019-02-23T03:29:33.253Z,103811.05
2019-02-23T03:32:03.402Z,103913.38
2019-02-23T03:34:31.839Z,103920.52
2019-02-23T03:37:00.627Z,103914.74
2019-02-23T03:39:29.107Z,103912.05
2019-02-23T03:42:00.638Z,103918.75
2019-02-23T03:44:29.117Z,103921.40
2019-02-23T03:46:57.609Z,103913.84
2019-02-23T03:49:27.701Z,103905.38
2019-02-23T03:51:56.232Z,103907.62
2019-02-23T03:54:26.383Z,103904.05
2019-02-23T03:56:54.869Z,103900.50
2019-02-23T03:59:23.429Z,103906.73
2019-02-23T04:01:53.453Z,103914.28
2019-02-23T04:04:21.937Z,103910.75
2019-02-23T04:06:53.346Z,103914.73
2019-02-23T04:09:21.879Z,103906.73
2019-02-23T04:11:50.833Z,103909.86
2019-02-23T04:14:21.273Z,103908.96
2019-02-23T04:16:52.390Z,103911.61
2019-02-23T04:19:26.409Z,103816.84
2019-02-23T04:21:57.353Z,103906.27
2019-02-23T04:24:30.088Z,103902.73
2019-02-23T04:26:58.697Z,103902.72
2019-02-23T04:29:27.174Z,103903.17
2019-02-23T04:31:56.531Z,103916.97
2019-02-23T04:34:25.784Z,103914.30
2019-02-23T04:36:54.271Z,103914.29
2019-02-23T04:39:23.619Z,103912.50
2019-02-23T04:41:52.078Z,103915.65
2019-02-23T04:44:20.577Z,103911.64
2019-02-23T04:46:49.043Z,103899.62
2019-02-23T04:49:19.173Z,103894.72
2019-02-23T04:51:47.683Z,103904.05
2019-02-23T04:54:17.458Z,103906.70
2019-02-23T04:56:45.928Z,103916.52
2019-02-23T04:59:14.431Z,103926.32
2019-02-23T05:01:45.559Z,103927.64
2019-02-23T05:04:14.025Z,103921.87
2019-02-23T05:06:42.561Z,103943.22
2019-02-23T05:09:13.763Z,103951.23
2019-02-23T05:11:42.245Z,103961.49
2019-02-23T05:14:10.747Z,103955.70
2019-02-23T05:16:39.207Z,103956.58
2019-02-23T05:19:07.970Z,103950.80
2019-02-23T05:21:36.471Z,103950.78
2019-02-23T05:24:05.099Z,103945.01
2019-02-23T05:26:33.574Z,103948.14
2019-02-23T05:29:02.074Z,103951.67
2019-02-23T05:31:30.556Z,103945.45
2019-02-23T05:33:59.577Z,103947.68
2019-02-23T05:36:28.379Z,103935.20
2019-02-23T05:38:56.926Z,103927.19
2019-02-23T05:41:25.525Z,103927.66
2019-02-23T05:43:54.112Z,103928.95
2019-02-23T05:46:22.618Z,103926.27
2019-02-23T05:48:51.164Z,103930.30
2019-02-23T05:51:19.662Z,103933.41
2019-02-23T05:53:50.988Z,103938.72
2019-02-23T05:56:19.537Z,103935.16
2019-02-23T05:58:48.078Z,103932.02
2019-02-23T06:01:16.610Z,103925.78
2019-02-23T06:03:46.882Z,103932.00
2019-02-23T06:06:15.413Z,103925.76
2019-02-23T06:08:44.712Z,103927.08
2019-02-23T06:11:16.012Z,103929.77
2019-02-23T06:13:44.543Z,103938.67
2019-02-23T06:16:13.026Z,103940.91
2019-02-23T06:18:41.534Z,103934.27
2019-02-23T06:21:10.094Z,103932.03
2019-02-23T06:23:38.598Z,103934.24
2019-02-23T06:26:07.121Z,103938.27
2019-02-23T06:28:35.604Z,103945.34
2019-02-23T06:31:04.232Z,103952.94
2019-02-23T06:33:32.801Z,103940.04
2019-02-23T06:36:01.291Z,103947.58
2019-02-23T06:38:29.792Z,103935.56
2019-02-23T06:40:58.420Z,103936.88
2019-02-23T06:43:26.931Z,103939.99
2019-02-23T06:45:55.432Z,103936.45
2019-02-23T06:48:24.020Z,103938.69
2019-02-23T06:50:52.559Z,103939.13
2019-02-23T06:53:21.066Z,103939.15
2019-02-23T06:55:49.861Z,103937.82
2019-02-23T06:58:18.365Z,103940.95
2019-02-23T07:00:46.965Z,103938.30
2019-02-23T07:03:15.595Z,103941.41
2019-02-23T07:05:44.283Z,103943.20
2019-02-23T07:08:12.836Z,103947.20
2019-02-23T07:10:41.489Z,103949.45
2019-02-23T07:13:10.007Z,103958.37
2019-02-23T07:15:39.091Z,103948.14
2019-02-23T07:18:07.722Z,103950.80
2019-02-23T07:20:43.708Z,103957.05
2019-02-23T07:23:09.632Z,103960.59
2019-02-23T07:25:38.916Z,103952.14
2019-02-23T07:28:07.371Z,103953.94
2019-02-23T07:30:35.937Z,103953.05
2019-02-23T07:33:07.351Z,103950.81
2019-02-23T07:35:35.850Z,103954.36
2019-02-23T07:38:04.399Z,103950.32
2019-02-23T07:40:33.663Z,103948.45
2019-02-23T07:43:02.186Z,103939.03
2019-02-23T07:45:30.685Z,103934.40
2019-02-23T07:47:59.669Z,103932.81
2019-02-23T07:50:28.300Z,103935.65
2019-02-23T07:52:59.329Z,103935.59
2019-02-23T07:55:30.969Z,103784.30
2019-02-23T07:57:59.543Z,103930.20
2019-02-23T08:00:28.058Z,103915.64
2019-02-23T08:02:59.553Z,103910.56
2019-02-23T08:05:28.143Z,103897.70
2019-02-23T08:07:57.841Z,103887.47
2019-02-23T08:10:26.808Z,103896.30
2019-02-23T08:12:57.343Z,103894.47
2019-02-23T08:15:26.793Z,103888.28
2019-02-23T08:17:58.375Z,103892.73
2019-02-23T08:20:27.316Z,103884.52
2019-02-23T08:22:55.823Z,103890.45
2019-02-23T08:25:27.568Z,103881.51
2019-02-23T08:27:56.128Z,103872.92
2019-02-23T08:30:24.833Z,103873.63
2019-02-23T08:32:53.389Z,103889.73
2019-02-23T08:35:22.128Z,103885.53
2019-02-23T08:37:50.627Z,103876.59
2019-02-23T08:40:19.368Z,103866.33
2019-02-23T08:42:47.842Z,103863.58
2019-02-23T08:45:16.594Z,103862.52
2019-02-23T08:47:45.107Z,103855.91
2019-02-23T08:50:15.338Z,103856.53
2019-02-23T08:52:48.997Z,103852.67
2019-02-23T08:55:15.134Z,103852.20
2019-02-23T08:57:43.626Z,103849.14
2019-02-23T09:03:25.130Z,103849.12
2019-02-23T09:05:53.633Z,103847.58
2019-02-23T09:08:22.190Z,103835.14
2019-02-23T09:10:50.689Z,103842.04
2019-02-23T09:13:19.229Z,103842.82
2019-02-23T09:15:47.727Z,103843.66
2019-02-23T09:18:16.192Z,103839.74
2019-02-23T09:20:44.676Z,103839.82
2019-02-23T09:23:13.216Z,103849.70
2019-02-23T09:25:42.034Z,103869.88
2019-02-23T09:28:10.500Z,103889.06
2019-02-23T09:30:39.049Z,103895.09
2019-02-23T09:33:07.519Z,103902.28
2019-02-23T09:35:36.404Z,103909.99
2019-02-23T09:38:04.998Z,103896.20
2019-02-23T09:40:34.010Z,103895.66
2019-02-23T09:43:02.483Z,103883.13
2019-02-23T09:45:32.594Z,103879.30
2019-02-23T09:48:01.126Z,103872.52
2019-02-23T09:50:30.917Z,103872.88
2019-02-23T09:53:10.844Z,103866.20
2019-02-23T09:55:29.643Z,103879.42
2019-02-23T09:57:58.108Z,103879.49
2019-02-23T10:00:26.579Z,103883.58
2019-02-23T10:02:55.121Z,103878.00
2019-02-23T10:05:24.828Z,103873.69
2019-02-23T10:07:53.332Z,103868.10
2019-02-23T10:10:22.014Z,103861.86
2019-02-23T10:12:50.467Z,103860.73
2019-02-23T10:15:20.795Z,103866.78
2019-02-23T10:17:49.241Z,103864.05
2019-02-23T10:20:17.899Z,103861.13
2019-02-23T10:22:46.381Z,103856.10
2019-02-23T10:25:15.021Z,103854.41
2019-02-23T10:27:43.497Z,103857.70
2019-02-23T10:30:16.772Z,103853.01
2019-02-23T10:32:48.256Z,103849.00
2019-02-23T10:35:16.821Z,103861.30
2019-02-23T10:37:45.352Z,103850.13
2019-02-23T10:40:14.003Z,103857.48
2019-02-23T10:42:42.482Z,103851.16
2019-02-23T10:45:12.319Z,103844.86
2019-02-23T10:47:40.883Z,103845.01
2019-02-23T10:50:11.342Z,103833.11
2019-02-23T10:52:41.535Z,103831.72
2019-02-23T10:55:12.376Z,103836.98
2019-02-23T10:57:40.997Z,103839.04
2019-02-23T11:00:17.082Z,103839.97
2019-02-23T11:02:45.704Z,103840.30
2019-02-23T11:05:14.824Z,103831.62
2019-02-23T11:07:43.469Z,103835.42
2019-02-23T11:10:12.491Z,103828.11
2019-02-23T11:12:41.037Z,103810.29
2019-02-23T11:15:14.290Z,103802.15
2019-02-23T11:17:42.870Z,103792.53
2019-02-23T11:20:11.899Z,103789.73
2019-02-23T11:22:40.447Z,103802.52
2019-02-23T11:25:12.685Z,103799.03
2019-02-23T11:27:41.225Z,103798.44
2019-02-23T11:30:12.807Z,103806.41
2019-02-23T11:32:41.296Z,103806.04
2019-02-23T11:35:12.975Z,103801.66
2019-02-23T11:37:41.466Z,103805.77
2019-02-23T11:40:13.997Z,103816.11
2019-02-23T11:42:42.534Z,103814.71
2019-02-23T11:45:11.816Z,103823.66
2019-02-23T11:47:40.355Z,103813.69
2019-02-23T11:50:13.707Z,103809.71
2019-02-23T11:52:42.250Z,103804.77
2019-02-23T11:55:10.923Z,103802.58
2019-02-23T11:57:39.431Z,103796.58
2019-02-23T12:00:31.600Z,103791.53
2019-02-23T12:03:00.184Z,103784.88
2019-02-23T12:05:28.724Z,103779.58
2019-02-23T12:07:57.247Z,103775.23
2019-02-23T12:10:28.972Z,103771.75
2019-02-23T12:13:00.058Z,103762.64
2019-02-23T12:15:31.617Z,103760.11
2019-02-23T12:18:02.252Z,103760.96
2019-02-23T12:20:30.810Z,103764.12
2019-02-23T12:22:59.266Z,103757.09
2019-02-23T12:25:27.767Z,103757.16
2019-02-23T12:27:56.253Z,103757.55
2019-02-23T12:30:24.895Z,103754.13
2019-02-23T12:32:53.462Z,103750.59
2019-02-23T12:35:22.116Z,103750.59
2019-02-23T12:37:50.598Z,103748.37
2019-02-23T12:40:22.047Z,103753.23
2019-02-23T12:45:44.372Z,103751.80
2019-02-23T12:48:11.410Z,103740.09
2019-02-23T12:50:39.883Z,103734.70
2019-02-23T12:53:08.354Z,103739.32
2019-02-23T12:55:36.842Z,103734.91
2019-02-23T12:58:05.386Z,103735.31
2019-02-23T13:00:38.004Z,103726.73
2019-02-23T13:03:16.290Z,103724.45
2019-02-23T13:05:44.808Z,103719.78
2019-02-23T13:08:37.217Z,103711.19
2019-02-23T13:11:05.816Z,103715.07
2019-02-23T13:13:40.169Z,103712.00
2019-02-23T13:16:20.490Z,103705.66
2019-02-23T13:19:06.741Z,103700.38
2019-02-23T13:21:41.203Z,103707.50
2019-02-23T13:24:28.362Z,103702.10
2019-02-23T13:27:24.515Z,103700.79
2019-02-23T13:30:15.683Z,103714.50
2019-02-23T13:33:07.257Z,103705.53
2019-02-23T13:35:57.119Z,103703.06
2019-02-23T13:38:50.604Z,103701.05
2019-02-23T13:41:45.971Z,103696.69
2019-02-23T13:44:37.123Z,103698.55
2019-02-23T13:47:25.141Z,103688.63
2019-02-23T13:50:35.425Z,103689.12
2019-02-23T13:53:09.630Z,103683.70
2019-02-23T13:55:44.034Z,103678.77
2019-02-23T14:01:49.374Z,103669.59
2019-02-23T14:04:23.540Z,103667.63
2019-02-23T14:07:10.838Z,103662.63
2019-02-23T14:09:50.901Z,103661.34
2019-02-23T14:12:25.355Z,103659.33
2019-02-23T14:15:05.844Z,103666.71
2019-02-23T14:18:07.970Z,103657.40
2019-02-23T14:21:03.308Z,103661.73
2019-02-23T14:23:43.444Z,103667.93
2019-02-23T14:26:23.194Z,103667.77
2019-02-23T14:29:03.475Z,103674.34
2019-02-23T14:31:40.736Z,103674.52
2019-02-23T14:34:15.105Z,103565.91
2019-02-23T14:37:03.179Z,103665.16
2019-02-23T14:39:46.479Z,103666.63
2019-02-23T14:42:42.164Z,103666.61
2019-02-23T14:45:44.461Z,103662.31
2019-02-23T14:48:33.956Z,103665.68
2019-02-23T14:51:05.466Z,103671.23
2019-02-23T14:53:48.842Z,103667.52
2019-02-23T14:56:23.324Z,103664.73
2019-02-23T14:58:57.482Z,103658.77
2019-02-23T15:01:34.711Z,103664.27
2019-02-23T15:04:09.191Z,103655.86
2019-02-23T15:07:10.638Z,103654.72
2019-02-23T15:10:07.286Z,103653.11
2019-02-23T15:12:59.119Z,103662.25
2019-02-23T15:15:33.509Z,103664.91
2019-02-23T15:18:21.756Z,103670.63
2019-02-23T15:21:09.794Z,103665.80
2019-02-23T15:24:16.173Z,103589.08
2019-02-23T15:27:04.151Z,103676.69
2019-02-23T15:29:44.559Z,103670.37
2019-02-23T15:32:32.812Z,103663.31
2019-02-23T15:35:14.755Z,103659.34
2019-02-23T15:37:58.120Z,103661.91
2019-02-23T15:40:34.980Z,103656.11
2019-02-23T15:43:13.144Z,103657.31
2019-02-23T15:46:07.347Z,103649.14
2019-02-23T15:48:56.371Z,103645.61
2019-02-23T15:51:24.996Z,103641.42
2019-02-23T15:53:54.034Z,103635.16
2019-02-23T15:56:25.684Z,103627.44
2019-02-23T15:58:54.160Z,103627.17
2019-02-23T16:01:22.803Z,103626.85
2019-02-23T16:03:51.331Z,103633.06
2019-02-23T16:06:22.471Z,103630.59
2019-02-23T16:08:50.948Z,103632.02
2019-02-23T16:11:23.984Z,103632.47
2019-02-23T16:13:57.003Z,103624.97
2019-02-23T16:16:25.653Z,103624.77
2019-02-23T16:18:59.794Z,103623.45
2019-02-23T16:21:28.303Z,103620.48
2019-02-23T16:23:56.838Z,103624.20
2019-02-23T16:26:25.489Z,103629.28
2019-02-23T16:28:55.849Z,103628.96
2019-02-23T16:31:24.368Z,103625.70
2019-02-23T16:33:52.955Z,103621.33
2019-02-23T16:36:21.408Z,103624.58
2019-02-23T16:38:49.890Z,103628.66
2019-02-23T16:41:18.480Z,103625.59
2019-02-23T16:43:46.967Z,103631.09
2019-02-23T16:46:15.456Z,103626.33
2019-02-23T16:48:48.499Z,103626.41
2019-02-23T16:51:16.998Z,103625.67
2019-02-23T16:53:48.732Z,103619.95
2019-02-23T16:56:15.796Z,103616.97
2019-02-23T16:58:50.823Z,103622.06
2019-02-23T17:01:19.297Z,103613.61
2019-02-23T17:03:47.907Z,103616.52
2019-02-23T17:06:16.475Z,103618.91
2019-02-23T17:08:49.445Z,103622.58
2019-02-23T17:11:19.224Z,103629.08
2019-02-23T17:13:47.788Z,103635.41
2019-02-23T17:16:16.795Z,103641.42
2019-02-23T17:18:48.521Z,103628.77
2019-02-23T17:21:18.591Z,103637.34
2019-02-23T17:23:47.122Z,103635.59
2019-02-23T17:26:15.583Z,103633.37
2019-02-23T17:28:44.146Z,103637.56
2019-02-23T17:31:12.708Z,103638.98
2019-02-23T17:33:42.834Z,103639.06
2019-02-23T17:36:15.604Z,103639.63
2019-02-23T17:38:47.177Z,103640.98
2019-02-23T17:41:15.672Z,103642.01
2019-02-23T17:43:44.162Z,103646.08
2019-02-23T17:46:12.627Z,103651.76
2019-02-23T17:48:41.523Z,103649.47
2019-02-23T17:51:10.025Z,103642.38
2019-02-23T17:53:38.509Z,103650.50
2019-02-23T17:56:12.199Z,103650.18
2019-02-23T17:58:37.196Z,103647.55
2019-02-23T18:01:05.765Z,103652.08
2019-02-23T18:03:34.239Z,103658.48
2019-02-23T18:06:02.793Z,103659.03
2019-02-23T18:08:33.096Z,103652.75
2019-02-23T18:11:01.685Z,103661.28
2019-02-23T18:13:30.181Z,103662.63
2019-02-23T18:15:58.847Z,103656.52
2019-02-23T18:18:27.327Z,103656.13
2019-02-23T18:20:55.815Z,103655.28
2019-02-23T18:23:24.288Z,103652.62
2019-02-23T18:25:52.867Z,103650.53
2019-02-23T18:28:21.376Z,103651.11
2019-02-23T18:30:49.852Z,103645.73
2019-02-23T18:33:18.349Z,103653.02
2019-02-23T18:35:46.930Z,103656.30
2019-02-23T18:38:15.473Z,103659.82
2019-02-23T18:40:48.377Z,103657.23
2019-02-23T18:43:14.248Z,103656.33
2019-02-23T18:45:47.623Z,103654.67
2019-02-23T18:48:16.457Z,103651.09
2019-02-23T18:50:45.031Z,103657.00
2019-02-23T18:53:13.510Z,103650.67
2019-02-23T18:55:42.011Z,103643.33
2019-02-23T18:58:12.109Z,103644.67
2019-02-23T19:00:42.608Z,103650.09
2019-02-23T19:03:11.242Z,103646.15
2019-02-23T19:05:39.725Z,103646.53
2019-02-23T19:08:13.768Z,103647.09
2019-02-23T19:10:46.509Z,103652.12
2019-02-23T19:13:15.025Z,103644.20
2019-02-23T19:15:43.502Z,103633.16
2019-02-23T19:18:12.082Z,103639.47
2019-02-23T19:20:40.619Z,103640.52
2019-02-23T19:23:09.208Z,103645.53
2019-02-23T19:25:37.688Z,103646.94
2019-02-23T19:28:06.175Z,103648.70
2019-02-23T19:30:39.652Z,103649.21
2019-02-23T19:33:14.642Z,103652.86
2019-02-23T19:35:42.848Z,103648.89
2019-02-23T19:38:11.360Z,103656.53
2019-02-23T19:40:42.989Z,103652.66
2019-02-23T19:43:11.583Z,103654.89
2019-02-23T19:45:40.130Z,103648.76
2019-02-23T19:48:08.694Z,103656.91
2019-02-23T19:50:46.554Z,103658.75
2019-02-23T19:53:15.056Z,103651.62
2019-02-23T19:55:46.872Z,103650.02
2019-02-23T19:58:15.603Z,103646.06
2019-02-23T20:00:44.503Z,103642.45
2019-02-23T20:03:13.278Z,103642.63
2019-02-23T20:05:41.909Z,103640.37
2019-02-23T20:08:10.446Z,103633.68
2019-02-23T20:10:38.938Z,103635.88
2019-02-23T20:13:07.393Z,103636.41
2019-02-23T20:15:35.888Z,103636.47
2019-02-23T20:18:05.911Z,103636.64
2019-02-23T20:20:34.665Z,103633.12
2019-02-23T20:23:03.250Z,103630.84
2019-02-23T20:25:31.733Z,103626.41
2019-02-23T20:28:05.221Z,103628.17
2019-02-23T20:30:33.783Z,103627.77
2019-02-23T20:33:02.264Z,103640.28
2019-02-23T20:35:32.109Z,103633.72
2019-02-23T20:38:03.730Z,103632.77
2019-02-23T20:40:32.335Z,103624.30
2019-02-23T20:43:03.570Z,103623.88
2019-02-23T20:45:32.097Z,103626.94
2019-02-23T20:48:00.573Z,103624.25
2019-02-23T20:50:29.066Z,103616.80
2019-02-23T20:53:00.342Z,103615.89
2019-02-23T20:55:28.862Z,103614.55
2019-02-23T20:57:57.335Z,103611.81
2019-02-23T21:00:26.816Z,103610.92
2019-02-23T21:02:55.416Z,103607.90
2019-02-23T21:05:24.223Z,103606.56
2019-02-23T21:07:54.353Z,103610.74
2019-02-23T21:10:22.886Z,103606.27
2019-02-23T21:12:53.471Z,103603.15
2019-02-23T21:15:21.747Z,103609.43
2019-02-23T21:17:50.305Z,103599.23
2019-02-23T21:20:18.865Z,103598.41
2019-02-23T21:22:50.175Z,103594.03
2019-02-23T21:25:18.738Z,103593.25
2019-02-23T21:27:47.252Z,103584.29
2019-02-23T21:30:15.895Z,103588.80
2019-02-23T21:32:44.854Z,103591.48
2019-02-23T21:35:13.478Z,103587.09
2019-02-23T21:37:41.979Z,103588.47
2019-02-23T21:40:12.196Z,103587.56
2019-02-23T21:42:40.841Z,103591.72
2019-02-23T21:45:14.335Z,103583.16
2019-02-23T21:47:42.905Z,103581.80
2019-02-23T21:50:11.525Z,103576.92
2019-02-23T21:52:40.110Z,103586.67
2019-02-23T21:55:09.253Z,103584.50
2019-02-23T21:57:37.810Z,103581.81
2019-02-23T22:00:08.558Z,103584.97
2019-02-23T22:02:37.072Z,103588.13
2019-02-23T22:05:12.424Z,103581.49
2019-02-23T22:07:36.380Z,103590.01
2019-02-23T22:10:07.554Z,103583.80
2019-02-23T22:12:36.043Z,103581.19
2019-02-23T22:15:06.485Z,103573.56
2019-02-23T22:17:35.002Z,103579.37
2019-02-23T22:20:04.297Z,103575.83
2019-02-23T22:22:35.615Z,103570.50
2019-02-23T22:25:04.789Z,103563.41
2019-02-23T22:27:33.249Z,103562.95
2019-02-23T22:30:01.957Z,103568.74
2019-02-23T22:32:30.440Z,103564.35
2019-02-23T22:34:58.901Z,103555.53
2019-02-23T22:37:27.524Z,103551.59
2019-02-23T22:39:56.222Z,103553.02
2019-02-23T22:42:24.687Z,103555.56
2019-02-23T22:44:55.645Z,103558.77
2019-02-23T22:47:24.117Z,103563.13
2019-02-23T22:49:52.606Z,103558.23
2019-02-23T22:52:23.772Z,103550.19
2019-02-23T22:54:52.392Z,103552.02
2019-02-23T22:57:22.364Z,103542.23
2019-02-23T22:59:52.362Z,103539.11
2019-02-23T23:02:21.038Z,103543.18
2019-02-23T23:04:49.489Z,103536.58
2019-02-23T23:07:17.962Z,103536.98
2019-02-23T23:09:46.450Z,103532.64
2019-02-23T23:12:17.036Z,103528.57
2019-02-23T23:14:45.525Z,103526.03
2019-02-23T23:17:14.081Z,103526.51
2019-02-23T23:19:42.522Z,103523.81
2019-02-23T23:22:10.988Z,103527.84
2019-02-23T23:24:39.464Z,103544.43
2019-02-23T23:27:07.947Z,103531.84
2019-02-23T23:29:36.414Z,103530.50
2019-02-23T23:32:04.947Z,103527.77
2019-02-23T23:34:36.086Z,103522.91
2019-02-23T23:37:04.564Z,103525.98
2019-02-23T23:39:33.020Z,103522.84
2019-02-23T23:42:03.036Z,103520.68
2019-02-23T23:44:34.752Z,103517.09
2019-02-23T23:47:03.224Z,103510.87
2019-02-23T23:49:31.666Z,103510.00
2019-02-23T23:52:00.146Z,103513.21
2019-02-23T23:54:28.609Z,103511.45
2019-02-23T23:56:57.134Z,103511.81
2019-02-23T23:59:25.611Z,103511.80
